createdAt,value
2022-08-27T00:01:35.939Z,19.50
2022-08-27T00:04:04.447Z,19.50
2022-08-27T00:06:31.218Z,19.40
2022-08-27T00:08:58.243Z,19.50
2022-08-27T00:11:25.471Z,19.40
2022-08-27T00:13:52.662Z,19.50
2022-08-27T00:16:19.561Z,19.50
2022-08-27T00:18:48.259Z,19.50
2022-08-27T00:21:16.969Z,19.50
2022-08-27T00:23:44.075Z,19.40
2022-08-27T00:26:10.916Z,19.40
2022-08-27T00:28:38.007Z,19.50
2022-08-27T00:31:05.286Z,19.40
2022-08-27T00:33:31.932Z,19.50
2022-08-27T00:35:58.864Z,19.50
2022-08-27T00:38:26.076Z,19.40
2022-08-27T00:40:53.546Z,19.30
2022-08-27T00:43:25.404Z,19.30
2022-08-27T00:45:55.761Z,19.40
2022-08-27T00:48:25.123Z,19.50
2022-08-27T00:50:54.219Z,19.40
2022-08-27T00:53:24.215Z,19.50
2022-08-27T00:55:59.872Z,19.40
2022-08-27T00:58:32.837Z,19.30
2022-08-27T01:01:01.242Z,19.30
2022-08-27T01:03:28.068Z,19.40
2022-08-27T01:05:57.788Z,19.30
2022-08-27T01:08:26.756Z,19.30
2022-08-27T01:10:55.187Z,19.40
2022-08-27T01:13:59.013Z,19.30
2022-08-27T01:16:17.005Z,19.30
2022-08-27T01:18:44.607Z,19.20
2022-08-27T01:21:26.716Z,19.20
2022-08-27T01:24:31.041Z,19.30
2022-08-27T01:26:59.760Z,19.30
2022-08-27T01:29:26.856Z,19.40
2022-08-27T01:31:53.542Z,19.40
2022-08-27T01:34:20.206Z,19.40
2022-08-27T01:36:46.812Z,19.50
2022-08-27T01:39:13.415Z,19.40
2022-08-27T01:41:40.212Z,19.40
2022-08-27T01:44:06.887Z,19.50
2022-08-27T01:46:33.573Z,19.50
2022-08-27T01:49:00.268Z,19.50
2022-08-27T01:51:26.840Z,19.50
2022-08-27T01:53:53.494Z,19.50
2022-08-27T01:56:20.350Z,19.40
2022-08-27T01:58:48.272Z,19.50
2022-08-27T02:01:16.813Z,19.40
2022-08-27T02:03:44.534Z,19.30
2022-08-27T02:06:12.215Z,19.40
2022-08-27T02:08:39.981Z,19.50
2022-08-27T02:11:08.266Z,19.50
2022-08-27T02:13:35.492Z,19.40
2022-08-27T02:16:02.244Z,19.30
2022-08-27T02:18:28.865Z,19.30
2022-08-27T02:20:55.476Z,19.40
2022-08-27T02:23:22.232Z,19.30
2022-08-27T02:25:48.910Z,19.30
2022-08-27T02:28:15.770Z,19.30
2022-08-27T02:30:42.518Z,19.20
2022-08-27T02:33:09.439Z,19.20
2022-08-27T02:35:39.852Z,19.20
2022-08-27T02:38:08.170Z,19.10
2022-08-27T02:40:36.047Z,19.10
2022-08-27T02:43:03.547Z,19.10
2022-08-27T02:45:30.292Z,19.20
2022-08-27T02:47:56.879Z,19.10
2022-08-27T02:50:27.489Z,19.20
2022-08-27T02:52:54.739Z,19.10
2022-08-27T02:55:22.380Z,19.10
2022-08-27T02:57:49.085Z,19.20
2022-08-27T03:00:19.232Z,19.20
2022-08-27T03:02:45.985Z,19.10
2022-08-27T03:05:14.585Z,19.10
2022-08-27T03:07:41.521Z,19.20
2022-08-27T03:10:10.756Z,19.20
2022-08-27T03:12:37.378Z,19.20
2022-08-27T03:15:09.106Z,19.20
2022-08-27T03:17:55.214Z,19.20
2022-08-27T03:20:22.727Z,19.10
2022-08-27T03:22:49.342Z,19.20
2022-08-27T03:25:19.351Z,19.10
2022-08-27T03:27:45.999Z,19.00
2022-08-27T03:30:16.659Z,19.00
2022-08-27T03:32:43.689Z,19.00
2022-08-27T03:35:11.567Z,19.10
2022-08-27T03:37:38.447Z,19.10
2022-08-27T03:40:08.044Z,19.00
2022-08-27T03:42:35.859Z,18.90
2022-08-27T03:45:03.334Z,19.00
2022-08-27T03:47:30.073Z,18.90
2022-08-27T03:49:56.713Z,19.00
2022-08-27T03:52:23.275Z,19.00
2022-08-27T03:54:49.940Z,19.10
2022-08-27T03:57:17.308Z,19.00
2022-08-27T03:59:44.215Z,19.00
2022-08-27T04:02:10.877Z,19.00
2022-08-27T04:04:43.421Z,18.90
2022-08-27T04:07:10.455Z,18.90
2022-08-27T04:09:37.177Z,18.80
2022-08-27T04:12:03.875Z,18.80
2022-08-27T04:14:30.876Z,18.70
2022-08-27T04:16:58.190Z,18.80
2022-08-27T04:19:28.484Z,18.80
2022-08-27T04:22:00.707Z,18.70
2022-08-27T04:24:27.988Z,18.70
2022-08-27T04:26:54.598Z,18.70
2022-08-27T04:29:21.232Z,18.60
2022-08-27T04:31:47.988Z,18.60
2022-08-27T04:34:14.585Z,18.70
2022-08-27T04:36:41.663Z,18.70
2022-08-27T04:39:08.312Z,18.70
2022-08-27T04:41:35.067Z,18.70
2022-08-27T04:44:08.258Z,18.70
2022-08-27T04:46:37.645Z,18.70
2022-08-27T04:49:10.518Z,18.60
2022-08-27T04:51:39.357Z,18.70
2022-08-27T04:54:07.642Z,18.60
2022-08-27T04:56:36.930Z,18.70
2022-08-27T04:59:06.002Z,18.70
2022-08-27T05:01:32.711Z,18.70
2022-08-27T05:03:59.728Z,18.60
2022-08-27T05:06:27.180Z,18.60
2022-08-27T05:08:54.505Z,18.50
2022-08-27T05:11:23.172Z,18.40
2022-08-27T05:13:50.002Z,18.30
2022-08-27T05:16:21.803Z,18.40
2022-08-27T05:18:50.757Z,18.40
2022-08-27T05:21:26.723Z,18.40
2022-08-27T05:23:54.288Z,18.30
2022-08-27T05:26:21.268Z,18.40
2022-08-27T05:28:48.177Z,18.40
2022-08-27T05:31:15.710Z,18.40
2022-08-27T05:33:44.056Z,18.40
2022-08-27T05:36:20.525Z,18.40
2022-08-27T05:38:49.374Z,18.30
2022-08-27T05:41:18.537Z,18.20
2022-08-27T05:43:49.830Z,18.20
2022-08-27T05:46:18.902Z,18.20
2022-08-27T05:48:45.762Z,18.30
2022-08-27T05:51:16.256Z,18.40
2022-08-27T05:53:55.545Z,18.30
2022-08-27T05:56:24.966Z,18.30
2022-08-27T05:59:10.220Z,18.30
2022-08-27T06:01:40.808Z,18.30
2022-08-27T06:04:09.191Z,18.20
2022-08-27T06:06:37.554Z,18.20
2022-08-27T06:09:05.856Z,18.10
2022-08-27T06:11:33.131Z,18.20
2022-08-27T06:13:59.832Z,18.20
2022-08-27T06:16:26.579Z,18.20
2022-08-27T06:18:54.005Z,18.20
2022-08-27T06:21:24.670Z,18.30
2022-08-27T06:23:52.681Z,18.30
2022-08-27T06:26:21.569Z,18.30
2022-08-27T06:28:49.514Z,18.20
2022-08-27T06:31:22.756Z,18.10
2022-08-27T06:33:51.673Z,18.10
2022-08-27T06:36:21.550Z,18.10
2022-08-27T06:38:49.492Z,18.10
2022-08-27T06:41:23.618Z,18.00
2022-08-27T06:43:51.828Z,18.00
2022-08-27T06:46:21.919Z,17.90
2022-08-27T06:48:52.344Z,17.80
2022-08-27T06:51:24.330Z,17.90
2022-08-27T06:53:52.266Z,17.90
2022-08-27T06:56:19.890Z,17.90
2022-08-27T06:58:46.933Z,17.90
2022-08-27T07:01:22.230Z,17.80
2022-08-27T07:03:49.462Z,17.80
2022-08-27T07:06:17.965Z,17.70
2022-08-27T07:08:53.347Z,17.70
2022-08-27T07:11:21.196Z,17.80
2022-08-27T07:13:49.167Z,17.90
2022-08-27T07:16:23.200Z,17.90
2022-08-27T07:18:52.648Z,17.90
2022-08-27T07:21:20.732Z,17.80
2022-08-27T07:23:48.698Z,17.80
2022-08-27T07:26:16.015Z,17.80
2022-08-27T07:28:44.061Z,17.80
2022-08-27T07:31:13.775Z,17.80
2022-08-27T07:33:45.437Z,17.90
2022-08-27T07:36:19.576Z,17.90
2022-08-27T07:38:53.516Z,17.90
2022-08-27T07:41:31.245Z,17.90
2022-08-27T07:44:18.249Z,17.90
2022-08-27T07:46:47.907Z,17.90
2022-08-27T07:49:17.610Z,18.00
2022-08-27T07:51:44.299Z,18.00
2022-08-27T07:54:10.996Z,18.00
2022-08-27T07:56:37.584Z,18.00
2022-08-27T07:59:04.179Z,17.80
2022-08-27T08:01:30.870Z,17.80
2022-08-27T08:03:57.616Z,17.80
2022-08-27T08:06:24.293Z,17.90
2022-08-27T08:08:50.971Z,17.90
2022-08-27T08:11:18.939Z,17.90
2022-08-27T08:13:47.237Z,17.90
2022-08-27T08:16:14.849Z,17.90
2022-08-27T08:18:41.448Z,17.90
2022-08-27T08:21:11.852Z,18.00
2022-08-27T08:23:38.968Z,18.00
2022-08-27T08:26:06.788Z,18.00
2022-08-27T08:28:35.416Z,17.90
2022-08-27T08:31:02.422Z,17.90
2022-08-27T08:33:31.328Z,17.80
2022-08-27T08:36:06.900Z,17.90
2022-08-27T08:38:34.152Z,18.00
2022-08-27T08:41:01.496Z,17.90
2022-08-27T08:43:47.267Z,17.90
2022-08-27T08:46:22.238Z,18.00
2022-08-27T08:48:52.829Z,18.00
2022-08-27T08:51:32.672Z,18.20
2022-08-27T08:54:06.882Z,18.20
2022-08-27T08:57:13.975Z,18.10
2022-08-27T08:59:54.501Z,18.10
2022-08-27T09:02:22.486Z,18.10
2022-08-27T09:04:49.221Z,18.10
2022-08-27T09:07:44.776Z,18.20
2022-08-27T09:10:26.227Z,18.30
2022-08-27T09:12:58.688Z,18.30
2022-08-27T09:15:29.074Z,18.50
2022-08-27T09:18:14.635Z,18.60
2022-08-27T09:20:46.777Z,18.60
2022-08-27T09:23:30.993Z,18.50
2022-08-27T09:25:57.620Z,18.30
2022-08-27T09:28:46.084Z,18.30
2022-08-27T09:31:17.216Z,18.20
2022-08-27T09:33:55.098Z,18.30
2022-08-27T09:36:23.964Z,18.20
2022-08-27T09:39:02.211Z,18.30
2022-08-27T09:41:40.019Z,18.30
2022-08-27T09:44:12.652Z,18.30
2022-08-27T09:46:57.866Z,18.30
2022-08-27T09:49:25.308Z,18.20
2022-08-27T09:51:53.384Z,18.30
2022-08-27T09:54:56.477Z,18.40
2022-08-27T09:57:42.106Z,18.50
2022-08-27T10:00:15.218Z,18.70
2022-08-27T10:02:53.325Z,18.70
2022-08-27T10:05:38.529Z,18.90
2022-08-27T10:08:23.968Z,18.90
2022-08-27T10:11:00.481Z,18.90
2022-08-27T10:13:53.317Z,18.70
2022-08-27T10:16:46.466Z,18.70
2022-08-27T10:19:41.123Z,18.70
2022-08-27T10:22:32.460Z,18.90
2022-08-27T10:25:06.276Z,19.10
2022-08-27T10:28:06.875Z,19.10
2022-08-27T10:30:52.175Z,19.10
2022-08-27T10:33:50.213Z,19.10
2022-08-27T10:36:32.495Z,19.10
2022-08-27T10:39:12.362Z,19.00
2022-08-27T10:42:11.960Z,19.00
2022-08-27T10:45:07.553Z,19.00
2022-08-27T10:47:46.470Z,19.00
2022-08-27T10:50:40.883Z,19.00
2022-08-27T10:53:20.904Z,19.20
2022-08-27T10:55:52.385Z,19.00
2022-08-27T10:58:25.153Z,19.00
2022-08-27T11:01:06.342Z,19.10
2022-08-27T11:03:51.584Z,19.20
2022-08-27T11:06:33.612Z,19.40
2022-08-27T11:09:11.288Z,19.50
2022-08-27T11:14:43.249Z,19.40
2022-08-27T11:17:38.006Z,19.40
2022-08-27T11:20:18.727Z,19.40
2022-08-27T11:22:49.288Z,19.60
2022-08-27T11:25:27.872Z,19.50
2022-08-27T11:27:56.116Z,19.50
2022-08-27T11:30:59.083Z,19.70
2022-08-27T11:33:45.390Z,19.70
2022-08-27T11:36:37.314Z,19.70
2022-08-27T11:39:29.692Z,20.00
2022-08-27T11:42:07.017Z,20.20
2022-08-27T11:44:42.443Z,20.30
2022-08-27T11:47:19.232Z,20.50
2022-08-27T11:49:55.632Z,20.50
2022-08-27T11:52:34.893Z,20.60
2022-08-27T11:55:26.069Z,20.80
2022-08-27T11:58:05.976Z,20.80
2022-08-27T12:00:36.339Z,20.80
2022-08-27T12:03:05.355Z,20.90
2022-08-27T12:05:45.492Z,21.00
2022-08-27T12:08:20.313Z,21.20
2022-08-27T12:10:47.889Z,21.20
2022-08-27T12:13:28.388Z,21.20
2022-08-27T12:15:58.167Z,21.20
2022-08-27T12:18:43.745Z,21.40
2022-08-27T12:21:30.735Z,21.60
2022-08-27T12:24:32.264Z,21.50
2022-08-27T12:27:24.308Z,21.70
2022-08-27T12:30:09.360Z,22.00
2022-08-27T12:32:44.629Z,22.00
2022-08-27T12:35:17.632Z,22.10
2022-08-27T12:38:09.829Z,22.30
2022-08-27T12:40:49.393Z,22.50
2022-08-27T12:43:26.069Z,22.20
2022-08-27T12:46:06.343Z,22.30
2022-08-27T12:48:46.396Z,22.40
2022-08-27T12:51:23.270Z,22.80
2022-08-27T12:54:28.898Z,23.10
2022-08-27T12:57:17.360Z,23.00
2022-08-27T13:00:02.895Z,23.10
2022-08-27T13:02:47.371Z,23.20
2022-08-27T13:05:19.646Z,23.40
2022-08-27T13:07:47.720Z,23.30
2022-08-27T13:10:16.471Z,23.40
2022-08-27T13:12:45.068Z,23.30
2022-08-27T13:15:15.617Z,23.30
2022-08-27T13:17:46.303Z,23.40
2022-08-27T13:20:22.352Z,23.40
2022-08-27T13:22:50.085Z,23.40
2022-08-27T13:25:25.828Z,23.60
2022-08-27T13:27:59.233Z,23.90
2022-08-27T13:30:35.696Z,23.90
2022-08-27T13:33:06.136Z,24.10
2022-08-27T13:35:33.984Z,23.90
2022-08-27T13:38:02.439Z,23.90
2022-08-27T13:40:51.248Z,23.80
2022-08-27T13:43:18.751Z,23.90
2022-08-27T13:45:50.230Z,24.30
2022-08-27T13:48:19.828Z,24.30
2022-08-27T13:50:58.192Z,24.30
2022-08-27T13:53:47.650Z,24.50
2022-08-27T13:56:31.754Z,24.60
2022-08-27T13:59:18.813Z,24.80
2022-08-27T14:02:09.496Z,24.90
2022-08-27T14:04:43.384Z,24.60
2022-08-27T14:07:21.756Z,24.80
2022-08-27T14:10:15.416Z,24.70
2022-08-27T14:12:42.581Z,24.90
2022-08-27T14:15:29.861Z,24.90
2022-08-27T14:17:56.754Z,25.10
2022-08-27T14:20:25.287Z,25.40
2022-08-27T14:22:52.143Z,25.60
2022-08-27T14:25:22.339Z,25.10
2022-08-27T14:27:54.171Z,24.60
2022-08-27T14:33:16.220Z,24.20
2022-08-27T14:35:43.547Z,24.10
2022-08-27T14:38:18.556Z,24.30
2022-08-27T14:40:52.372Z,24.40
2022-08-27T14:43:20.338Z,24.60
2022-08-27T14:45:51.678Z,24.60
2022-08-27T14:48:21.796Z,24.50
2022-08-27T14:50:56.579Z,24.50
2022-08-27T14:53:23.443Z,24.70
2022-08-27T14:55:52.112Z,24.80
2022-08-27T14:58:20.257Z,24.60
2022-08-27T15:00:47.212Z,24.50
2022-08-27T15:03:14.529Z,24.40
2022-08-27T15:05:43.368Z,24.30
2022-08-27T15:08:13.349Z,24.50
2022-08-27T15:10:41.251Z,24.60
2022-08-27T15:13:11.059Z,24.60
2022-08-27T15:15:38.816Z,24.60
2022-08-27T15:18:06.059Z,24.50
2022-08-27T15:20:33.035Z,24.30
2022-08-27T15:22:59.917Z,24.40
2022-08-27T15:25:26.832Z,24.30
2022-08-27T15:27:54.219Z,24.20
2022-08-27T15:30:26.195Z,24.30
2022-08-27T15:32:53.440Z,24.30
2022-08-27T15:35:25.762Z,24.20
2022-08-27T15:37:54.094Z,24.30
2022-08-27T15:40:22.468Z,24.30
2022-08-27T15:42:57.652Z,24.30
2022-08-27T15:45:27.365Z,24.00
2022-08-27T15:47:55.081Z,23.90
2022-08-27T15:53:13.136Z,24.10
2022-08-27T15:55:42.355Z,24.30
2022-08-27T15:58:09.999Z,24.10
2022-08-27T16:00:37.987Z,24.20
2022-08-27T16:03:10.920Z,24.50
2022-08-27T16:05:39.850Z,24.80
2022-08-27T16:08:06.800Z,24.90
2022-08-27T16:10:33.737Z,24.80
2022-08-27T16:13:00.681Z,25.10
2022-08-27T16:15:27.680Z,25.00
2022-08-27T16:17:59.999Z,24.60
2022-08-27T16:20:27.128Z,24.70
2022-08-27T16:22:54.390Z,24.80
2022-08-27T16:25:23.196Z,24.90
2022-08-27T16:27:54.197Z,24.60
2022-08-27T16:30:21.644Z,24.60
2022-08-27T16:32:52.178Z,24.60
2022-08-27T16:35:20.309Z,24.70
2022-08-27T16:37:47.070Z,25.10
2022-08-27T16:40:14.984Z,25.30
2022-08-27T16:42:49.748Z,25.20
2022-08-27T16:45:22.967Z,25.00
2022-08-27T16:48:09.453Z,24.80
2022-08-27T16:50:36.856Z,24.90
2022-08-27T16:53:24.770Z,24.90
2022-08-27T16:55:51.800Z,25.30
2022-08-27T16:58:24.475Z,25.40
2022-08-27T17:00:53.756Z,25.40
2022-08-27T17:03:22.073Z,25.60
2022-08-27T17:05:49.497Z,25.60
2022-08-27T17:08:18.724Z,25.50
2022-08-27T17:10:50.525Z,25.10
2022-08-27T17:13:20.704Z,24.80
2022-08-27T17:15:52.557Z,24.80
2022-08-27T17:18:22.281Z,25.00
2022-08-27T17:20:50.816Z,25.10
2022-08-27T17:23:23.551Z,25.00
2022-08-27T17:25:52.513Z,25.10
2022-08-27T17:31:14.225Z,24.80
2022-08-27T17:33:44.874Z,24.80
2022-08-27T17:36:14.147Z,24.90
2022-08-27T17:38:42.149Z,24.90
2022-08-27T17:41:31.779Z,24.80
2022-08-27T17:44:05.454Z,24.90
2022-08-27T17:46:32.289Z,24.70
2022-08-27T17:48:59.572Z,24.70
2022-08-27T17:51:27.800Z,24.60
2022-08-27T17:54:00.588Z,24.80
2022-08-27T17:56:28.997Z,24.50
2022-08-27T17:58:56.506Z,24.30
2022-08-27T18:01:30.186Z,24.00
2022-08-27T18:03:58.331Z,24.10
2022-08-27T18:06:26.510Z,23.80
2022-08-27T18:08:53.991Z,23.20
2022-08-27T18:11:20.800Z,23.00
2022-08-27T18:13:52.383Z,22.80
2022-08-27T18:16:19.800Z,22.50
2022-08-27T18:18:46.663Z,22.30
2022-08-27T18:21:13.931Z,22.30
2022-08-27T18:23:51.589Z,21.90
2022-08-27T18:26:20.171Z,21.80
2022-08-27T18:28:48.989Z,21.80
2022-08-27T18:31:18.610Z,21.50
2022-08-27T18:33:45.635Z,21.30
2022-08-27T18:36:12.615Z,21.10
2022-08-27T18:38:39.208Z,21.00
2022-08-27T18:41:08.442Z,21.00
2022-08-27T18:43:35.916Z,21.00
2022-08-27T18:46:04.222Z,21.00
2022-08-27T18:48:31.604Z,20.70
2022-08-27T18:51:01.585Z,20.60
2022-08-27T18:53:31.003Z,20.70
2022-08-27T18:55:58.177Z,20.60
2022-08-27T18:58:25.195Z,20.50
2022-08-27T19:00:55.544Z,20.50
2022-08-27T19:03:34.595Z,20.30
2022-08-27T19:06:01.531Z,20.10
2022-08-27T19:08:37.310Z,20.10
2022-08-27T19:11:04.332Z,20.00
2022-08-27T19:13:32.272Z,20.00
2022-08-27T19:16:02.541Z,20.00
2022-08-27T19:18:32.304Z,20.00
2022-08-27T19:20:59.011Z,19.90
2022-08-27T19:23:29.324Z,19.80
2022-08-27T19:25:57.756Z,19.70
2022-08-27T19:28:29.208Z,19.40
2022-08-27T19:30:55.872Z,19.30
2022-08-27T19:33:22.711Z,19.20
2022-08-27T19:35:49.699Z,19.30
2022-08-27T19:38:16.431Z,19.30
2022-08-27T19:40:43.098Z,19.20
2022-08-27T19:43:10.115Z,19.20
2022-08-27T19:45:40.423Z,19.20
2022-08-27T19:48:08.825Z,19.20
2022-08-27T19:50:35.554Z,19.20
2022-08-27T19:53:02.196Z,19.10
2022-08-27T19:55:28.863Z,19.10
2022-08-27T19:57:55.507Z,19.10
2022-08-27T20:00:24.763Z,19.00
2022-08-27T20:02:55.355Z,18.90
2022-08-27T20:05:23.060Z,18.80
2022-08-27T20:07:53.315Z,18.70
2022-08-27T20:10:31.608Z,18.70
2022-08-27T20:13:04.888Z,18.60
2022-08-27T20:15:32.108Z,18.60
2022-08-27T20:18:01.467Z,18.70
2022-08-27T20:20:29.324Z,18.60
2022-08-27T20:22:56.600Z,18.50
2022-08-27T20:25:23.810Z,18.60
2022-08-27T20:27:51.597Z,18.40
2022-08-27T20:30:20.288Z,18.30
2022-08-27T20:32:47.191Z,18.30
2022-08-27T20:35:15.101Z,18.30
2022-08-27T20:37:42.648Z,18.10
2022-08-27T20:40:13.583Z,18.00
2022-08-27T20:42:40.331Z,17.80
2022-08-27T20:45:11.722Z,17.80
2022-08-27T20:47:40.211Z,17.70
2022-08-27T20:50:08.169Z,17.60
2022-08-27T20:52:35.896Z,17.60
2022-08-27T20:55:03.544Z,17.50
2022-08-27T20:57:30.483Z,17.50
2022-08-27T21:00:16.013Z,17.50
2022-08-27T21:02:42.769Z,17.50
2022-08-27T21:05:12.492Z,17.50
2022-08-27T21:07:39.621Z,17.40
2022-08-27T21:10:07.146Z,17.50
2022-08-27T21:12:34.106Z,17.40
2022-08-27T21:15:02.235Z,17.40
2022-08-27T21:17:29.383Z,17.40
2022-08-27T21:22:37.555Z,17.50
2022-08-27T21:25:05.057Z,17.50
2022-08-27T21:27:32.040Z,17.50
2022-08-27T21:29:58.884Z,17.50
2022-08-27T21:32:25.598Z,17.50
2022-08-27T21:34:52.316Z,17.50
2022-08-27T21:37:19.108Z,17.50
2022-08-27T21:39:45.977Z,17.50
2022-08-27T21:42:13.474Z,17.50
2022-08-27T21:44:41.688Z,17.50
2022-08-27T21:47:09.135Z,17.50
2022-08-27T21:49:35.853Z,17.50
2022-08-27T21:52:05.836Z,17.50
2022-08-27T21:54:34.723Z,17.50
2022-08-27T21:57:02.988Z,17.60
2022-08-27T21:59:30.396Z,17.50
2022-08-27T22:02:01.062Z,17.40
2022-08-27T22:04:29.782Z,17.30
2022-08-27T22:06:58.428Z,17.30
2022-08-27T22:09:25.047Z,17.20
2022-08-27T22:11:51.659Z,17.20
2022-08-27T22:14:18.440Z,17.20
2022-08-27T22:16:45.033Z,17.10
2022-08-27T22:19:11.648Z,17.10
2022-08-27T22:21:39.077Z,16.90
2022-08-27T22:24:06.065Z,16.90
2022-08-27T22:26:32.681Z,16.80
2022-08-27T22:28:59.455Z,16.80
2022-08-27T22:31:26.184Z,16.70
2022-08-27T22:33:53.386Z,16.70
2022-08-27T22:36:20.378Z,16.70
2022-08-27T22:38:47.631Z,16.70
2022-08-27T22:41:14.808Z,16.50
2022-08-27T22:43:45.524Z,16.40
2022-08-27T22:46:12.349Z,16.30
2022-08-27T22:48:39.385Z,16.30
2022-08-27T22:51:06.302Z,16.30
2022-08-27T22:53:36.049Z,16.30
2022-08-27T22:56:05.968Z,16.20
2022-08-27T22:58:32.774Z,16.30
2022-08-27T23:00:59.353Z,16.30
2022-08-27T23:03:26.078Z,16.30
2022-08-27T23:05:52.911Z,16.30
2022-08-27T23:08:19.672Z,16.30
2022-08-27T23:10:46.372Z,16.10
2022-08-27T23:13:13.370Z,16.10
2022-08-27T23:15:41.451Z,16.10
2022-08-27T23:18:08.321Z,16.00
2022-08-27T23:20:35.221Z,16.00
2022-08-27T23:23:02.700Z,16.00
2022-08-27T23:25:48.763Z,16.00
2022-08-27T23:28:16.159Z,16.00
2022-08-27T23:30:44.440Z,15.90
2022-08-27T23:33:12.745Z,15.80
2022-08-27T23:35:41.164Z,15.90
2022-08-27T23:38:07.799Z,15.90
2022-08-27T23:40:34.477Z,15.70
2022-08-27T23:43:01.155Z,15.70
2022-08-27T23:45:27.925Z,15.70
2022-08-27T23:47:54.552Z,15.60
2022-08-27T23:50:26.391Z,15.70
2022-08-27T23:53:01.805Z,15.60
2022-08-27T23:55:28.779Z,15.70
2022-08-27T23:57:57.519Z,15.70
